sensor_id;sensor_type;location;lat;lon;timestamp;P1;durP1;ratioP1;P2;durP2;ratioP2
67904;SDS011;54709;43.614;1.576;2022-12-31T00:00:28;16.70;;;8.25;;
67904;SDS011;54709;43.614;1.576;2022-12-31T00:02:53;15.27;;;8.25;;
67904;SDS011;54709;43.614;1.576;2022-12-31T00:05:19;15.35;;;7.88;;
67904;SDS011;54709;43.614;1.576;2022-12-31T00:07:44;16.08;;;8.25;;
67904;SDS011;54709;43.614;1.576;2022-12-31T00:10:09;15.20;;;8.25;;
67904;SDS011;54709;43.614;1.576;2022-12-31T00:12:35;17.80;;;8.27;;
67904;SDS011;54709;43.614;1.576;2022-12-31T00:15:00;15.07;;;8.32;;
67904;SDS011;54709;43.614;1.576;2022-12-31T00:17:26;13.20;;;7.25;;
67904;SDS011;54709;43.614;1.576;2022-12-31T00:19:51;14.40;;;7.80;;
67904;SDS011;54709;43.614;1.576;2022-12-31T00:22:16;13.98;;;7.20;;
67904;SDS011;54709;43.614;1.576;2022-12-31T00:24:42;16.23;;;7.85;;
67904;SDS011;54709;43.614;1.576;2022-12-31T00:27:07;14.60;;;7.82;;
67904;SDS011;54709;43.614;1.576;2022-12-31T00:29:32;11.88;;;7.35;;
67904;SDS011;54709;43.614;1.576;2022-12-31T00:31:58;13.18;;;7.35;;
67904;SDS011;54709;43.614;1.576;2022-12-31T00:34:23;11.50;;;6.95;;
67904;SDS011;54709;43.614;1.576;2022-12-31T00:36:49;18.80;;;7.68;;
67904;SDS011;54709;43.614;1.576;2022-12-31T00:39:14;10.63;;;6.68;;
67904;SDS011;54709;43.614;1.576;2022-12-31T00:41:39;15.57;;;7.55;;
67904;SDS011;54709;43.614;1.576;2022-12-31T00:44:07;12.63;;;7.85;;
67904;SDS011;54709;43.614;1.576;2022-12-31T00:46:33;12.73;;;7.10;;
67904;SDS011;54709;43.614;1.576;2022-12-31T00:48:58;12.90;;;7.07;;
67904;SDS011;54709;43.614;1.576;2022-12-31T00:51:24;14.15;;;7.65;;
67904;SDS011;54709;43.614;1.576;2022-12-31T00:53:53;14.10;;;7.35;;
67904;SDS011;54709;43.614;1.576;2022-12-31T00:56:21;12.95;;;6.93;;
67904;SDS011;54709;43.614;1.576;2022-12-31T00:58:48;11.80;;;7.03;;
67904;SDS011;54709;43.614;1.576;2022-12-31T01:01:15;10.90;;;7.13;;
67904;SDS011;54709;43.614;1.576;2022-12-31T01:03:49;11.15;;;7.13;;
67904;SDS011;54709;43.614;1.576;2022-12-31T01:06:15;13.10;;;6.85;;
67904;SDS011;54709;43.614;1.576;2022-12-31T01:08:41;11.68;;;6.95;;
67904;SDS011;54709;43.614;1.576;2022-12-31T01:11:06;14.20;;;7.00;;
67904;SDS011;54709;43.614;1.576;2022-12-31T01:13:43;11.55;;;7.88;;
67904;SDS011;54709;43.614;1.576;2022-12-31T01:16:10;13.98;;;7.20;;
67904;SDS011;54709;43.614;1.576;2022-12-31T01:18:37;15.07;;;7.82;;
67904;SDS011;54709;43.614;1.576;2022-12-31T01:21:03;14.63;;;7.50;;
67904;SDS011;54709;43.614;1.576;2022-12-31T01:23:30;13.70;;;7.82;;
67904;SDS011;54709;43.614;1.576;2022-12-31T01:25:58;13.68;;;7.57;;
67904;SDS011;54709;43.614;1.576;2022-12-31T01:28:25;12.65;;;7.28;;
67904;SDS011;54709;43.614;1.576;2022-12-31T01:30:50;12.95;;;7.95;;
67904;SDS011;54709;43.614;1.576;2022-12-31T01:33:15;15.30;;;7.70;;
67904;SDS011;54709;43.614;1.576;2022-12-31T01:35:41;11.20;;;7.30;;
67904;SDS011;54709;43.614;1.576;2022-12-31T01:38:06;15.88;;;7.65;;
67904;SDS011;54709;43.614;1.576;2022-12-31T01:40:35;11.43;;;7.57;;
67904;SDS011;54709;43.614;1.576;2022-12-31T01:43:01;18.98;;;8.63;;
67904;SDS011;54709;43.614;1.576;2022-12-31T01:45:27;16.08;;;8.82;;
67904;SDS011;54709;43.614;1.576;2022-12-31T01:47:53;15.27;;;8.05;;
67904;SDS011;54709;43.614;1.576;2022-12-31T01:50:23;13.13;;;7.60;;
67904;SDS011;54709;43.614;1.576;2022-12-31T01:52:53;13.75;;;8.38;;
67904;SDS011;54709;43.614;1.576;2022-12-31T01:58:11;19.08;;;8.38;;
67904;SDS011;54709;43.614;1.576;2022-12-31T02:00:40;13.50;;;7.97;;
67904;SDS011;54709;43.614;1.576;2022-12-31T02:03:06;13.15;;;8.13;;
67904;SDS011;54709;43.614;1.576;2022-12-31T02:05:37;11.95;;;7.85;;
67904;SDS011;54709;43.614;1.576;2022-12-31T02:08:06;11.73;;;7.40;;
67904;SDS011;54709;43.614;1.576;2022-12-31T02:10:32;14.95;;;7.72;;
67904;SDS011;54709;43.614;1.576;2022-12-31T02:12:58;12.48;;;7.63;;
67904;SDS011;54709;43.614;1.576;2022-12-31T02:15:34;13.10;;;7.95;;
67904;SDS011;54709;43.614;1.576;2022-12-31T02:18:17;12.35;;;7.70;;
67904;SDS011;54709;43.614;1.576;2022-12-31T02:31:33;14.98;;;8.55;;
67904;SDS011;54709;43.614;1.576;2022-12-31T02:34:04;13.05;;;7.95;;
67904;SDS011;54709;43.614;1.576;2022-12-31T02:36:37;11.75;;;7.97;;
67904;SDS011;54709;43.614;1.576;2022-12-31T02:39:05;12.35;;;7.15;;
67904;SDS011;54709;43.614;1.576;2022-12-31T02:41:30;17.55;;;8.18;;
67904;SDS011;54709;43.614;1.576;2022-12-31T02:47:01;15.98;;;8.20;;
67904;SDS011;54709;43.614;1.576;2022-12-31T02:52:16;17.38;;;8.35;;
67904;SDS011;54709;43.614;1.576;2022-12-31T02:57:41;14.25;;;8.00;;
67904;SDS011;54709;43.614;1.576;2022-12-31T03:00:13;12.43;;;7.68;;
67904;SDS011;54709;43.614;1.576;2022-12-31T03:02:57;14.43;;;7.90;;
67904;SDS011;54709;43.614;1.576;2022-12-31T03:05:26;15.43;;;8.10;;
67904;SDS011;54709;43.614;1.576;2022-12-31T03:07:54;12.77;;;7.45;;
67904;SDS011;54709;43.614;1.576;2022-12-31T03:10:20;11.32;;;7.65;;
67904;SDS011;54709;43.614;1.576;2022-12-31T03:12:45;13.38;;;7.72;;
67904;SDS011;54709;43.614;1.576;2022-12-31T03:15:16;11.93;;;8.15;;
67904;SDS011;54709;43.614;1.576;2022-12-31T03:18:05;15.50;;;8.00;;
67904;SDS011;54709;43.614;1.576;2022-12-31T03:20:34;11.32;;;7.75;;
67904;SDS011;54709;43.614;1.576;2022-12-31T03:23:21;12.15;;;7.68;;
67904;SDS011;54709;43.614;1.576;2022-12-31T03:25:54;13.68;;;7.78;;
67904;SDS011;54709;43.614;1.576;2022-12-31T03:28:22;17.27;;;8.20;;
67904;SDS011;54709;43.614;1.576;2022-12-31T03:30:50;16.95;;;7.55;;
67904;SDS011;54709;43.614;1.576;2022-12-31T03:33:18;11.55;;;7.25;;
67904;SDS011;54709;43.614;1.576;2022-12-31T03:35:45;10.90;;;7.20;;
67904;SDS011;54709;43.614;1.576;2022-12-31T03:38:12;13.15;;;7.45;;
67904;SDS011;54709;43.614;1.576;2022-12-31T03:40:45;14.82;;;7.85;;
67904;SDS011;54709;43.614;1.576;2022-12-31T03:43:12;11.45;;;7.30;;
67904;SDS011;54709;43.614;1.576;2022-12-31T03:45:38;14.65;;;7.65;;
67904;SDS011;54709;43.614;1.576;2022-12-31T03:48:04;14.85;;;7.70;;
67904;SDS011;54709;43.614;1.576;2022-12-31T03:50:30;12.45;;;7.70;;
67904;SDS011;54709;43.614;1.576;2022-12-31T03:52:56;13.07;;;7.53;;
67904;SDS011;54709;43.614;1.576;2022-12-31T03:55:22;15.45;;;8.05;;
67904;SDS011;54709;43.614;1.576;2022-12-31T03:57:48;18.17;;;8.18;;
67904;SDS011;54709;43.614;1.576;2022-12-31T04:00:15;18.17;;;8.50;;
67904;SDS011;54709;43.614;1.576;2022-12-31T04:02:42;15.57;;;7.85;;
67904;SDS011;54709;43.614;1.576;2022-12-31T04:05:08;16.98;;;7.65;;
67904;SDS011;54709;43.614;1.576;2022-12-31T04:07:34;19.85;;;8.38;;
67904;SDS011;54709;43.614;1.576;2022-12-31T04:10:00;16.42;;;8.50;;
67904;SDS011;54709;43.614;1.576;2022-12-31T04:12:26;17.27;;;7.97;;
67904;SDS011;54709;43.614;1.576;2022-12-31T04:14:51;15.23;;;7.57;;
67904;SDS011;54709;43.614;1.576;2022-12-31T04:17:17;13.40;;;7.30;;
67904;SDS011;54709;43.614;1.576;2022-12-31T04:19:42;15.15;;;7.32;;
67904;SDS011;54709;43.614;1.576;2022-12-31T04:22:08;16.75;;;7.55;;
67904;SDS011;54709;43.614;1.576;2022-12-31T04:24:33;15.85;;;7.70;;
67904;SDS011;54709;43.614;1.576;2022-12-31T04:26:58;15.82;;;7.25;;
67904;SDS011;54709;43.614;1.576;2022-12-31T04:29:24;12.40;;;7.32;;
67904;SDS011;54709;43.614;1.576;2022-12-31T04:31:50;13.65;;;7.20;;
67904;SDS011;54709;43.614;1.576;2022-12-31T04:34:15;16.13;;;7.32;;
67904;SDS011;54709;43.614;1.576;2022-12-31T04:36:41;13.82;;;7.63;;
67904;SDS011;54709;43.614;1.576;2022-12-31T04:39:06;19.27;;;7.68;;
67904;SDS011;54709;43.614;1.576;2022-12-31T04:41:32;16.30;;;7.45;;
67904;SDS011;54709;43.614;1.576;2022-12-31T04:43:58;16.75;;;7.43;;
67904;SDS011;54709;43.614;1.576;2022-12-31T04:46:28;14.52;;;7.47;;
67904;SDS011;54709;43.614;1.576;2022-12-31T04:48:55;12.95;;;7.63;;
67904;SDS011;54709;43.614;1.576;2022-12-31T04:51:21;14.88;;;7.57;;
67904;SDS011;54709;43.614;1.576;2022-12-31T04:53:47;15.30;;;7.70;;
67904;SDS011;54709;43.614;1.576;2022-12-31T04:56:13;17.58;;;7.10;;
67904;SDS011;54709;43.614;1.576;2022-12-31T04:58:39;18.15;;;7.70;;
67904;SDS011;54709;43.614;1.576;2022-12-31T05:01:04;15.35;;;7.60;;
67904;SDS011;54709;43.614;1.576;2022-12-31T05:03:30;14.98;;;6.82;;
67904;SDS011;54709;43.614;1.576;2022-12-31T05:06:02;11.00;;;7.05;;
67904;SDS011;54709;43.614;1.576;2022-12-31T05:08:29;13.73;;;6.97;;
67904;SDS011;54709;43.614;1.576;2022-12-31T05:10:55;14.85;;;7.68;;
67904;SDS011;54709;43.614;1.576;2022-12-31T05:13:21;11.82;;;7.80;;
67904;SDS011;54709;43.614;1.576;2022-12-31T05:15:47;20.35;;;7.78;;
67904;SDS011;54709;43.614;1.576;2022-12-31T05:18:12;15.93;;;7.93;;
67904;SDS011;54709;43.614;1.576;2022-12-31T05:20:38;14.75;;;7.53;;
67904;SDS011;54709;43.614;1.576;2022-12-31T05:23:03;14.02;;;7.65;;
67904;SDS011;54709;43.614;1.576;2022-12-31T05:25:29;17.70;;;7.53;;
67904;SDS011;54709;43.614;1.576;2022-12-31T05:27:54;12.93;;;7.82;;
67904;SDS011;54709;43.614;1.576;2022-12-31T05:30:20;16.73;;;7.60;;
67904;SDS011;54709;43.614;1.576;2022-12-31T05:32:45;17.95;;;7.85;;
67904;SDS011;54709;43.614;1.576;2022-12-31T05:35:11;16.20;;;7.85;;
67904;SDS011;54709;43.614;1.576;2022-12-31T05:37:37;16.08;;;7.80;;
67904;SDS011;54709;43.614;1.576;2022-12-31T05:40:03;17.48;;;7.72;;
67904;SDS011;54709;43.614;1.576;2022-12-31T05:42:28;14.85;;;7.10;;
67904;SDS011;54709;43.614;1.576;2022-12-31T05:44:54;21.30;;;8.02;;
67904;SDS011;54709;43.614;1.576;2022-12-31T05:47:19;15.25;;;7.00;;
67904;SDS011;54709;43.614;1.576;2022-12-31T05:49:45;14.90;;;8.15;;
67904;SDS011;54709;43.614;1.576;2022-12-31T05:52:10;18.85;;;7.28;;
67904;SDS011;54709;43.614;1.576;2022-12-31T05:54:36;14.40;;;6.97;;
67904;SDS011;54709;43.614;1.576;2022-12-31T05:57:02;13.98;;;7.68;;
67904;SDS011;54709;43.614;1.576;2022-12-31T05:59:28;19.95;;;7.45;;
67904;SDS011;54709;43.614;1.576;2022-12-31T06:01:54;18.40;;;7.75;;
67904;SDS011;54709;43.614;1.576;2022-12-31T06:04:19;13.48;;;7.15;;
67904;SDS011;54709;43.614;1.576;2022-12-31T06:06:44;18.10;;;6.85;;
67904;SDS011;54709;43.614;1.576;2022-12-31T06:09:10;14.98;;;7.13;;
67904;SDS011;54709;43.614;1.576;2022-12-31T06:11:35;14.60;;;7.82;;
67904;SDS011;54709;43.614;1.576;2022-12-31T06:14:01;16.85;;;7.75;;
67904;SDS011;54709;43.614;1.576;2022-12-31T06:16:26;13.77;;;6.97;;
67904;SDS011;54709;43.614;1.576;2022-12-31T06:18:52;17.85;;;7.55;;
67904;SDS011;54709;43.614;1.576;2022-12-31T06:21:17;14.63;;;7.25;;
67904;SDS011;54709;43.614;1.576;2022-12-31T06:23:44;16.15;;;7.40;;
67904;SDS011;54709;43.614;1.576;2022-12-31T06:26:09;16.98;;;6.90;;
67904;SDS011;54709;43.614;1.576;2022-12-31T06:28:35;16.55;;;6.80;;
67904;SDS011;54709;43.614;1.576;2022-12-31T06:31:01;15.25;;;7.00;;
67904;SDS011;54709;43.614;1.576;2022-12-31T06:33:27;10.77;;;7.13;;
67904;SDS011;54709;43.614;1.576;2022-12-31T06:35:56;12.88;;;6.78;;
67904;SDS011;54709;43.614;1.576;2022-12-31T06:38:23;15.75;;;7.25;;
67904;SDS011;54709;43.614;1.576;2022-12-31T06:40:51;14.20;;;6.85;;
67904;SDS011;54709;43.614;1.576;2022-12-31T06:43:16;12.80;;;7.22;;
67904;SDS011;54709;43.614;1.576;2022-12-31T06:45:42;12.55;;;7.43;;
67904;SDS011;54709;43.614;1.576;2022-12-31T06:48:07;15.07;;;7.55;;
67904;SDS011;54709;43.614;1.576;2022-12-31T06:50:33;15.57;;;7.40;;
67904;SDS011;54709;43.614;1.576;2022-12-31T06:52:58;12.43;;;7.25;;
67904;SDS011;54709;43.614;1.576;2022-12-31T06:55:24;13.10;;;7.03;;
67904;SDS011;54709;43.614;1.576;2022-12-31T06:57:50;18.80;;;6.72;;
67904;SDS011;54709;43.614;1.576;2022-12-31T07:00:16;12.98;;;7.65;;
67904;SDS011;54709;43.614;1.576;2022-12-31T07:05:52;15.45;;;7.88;;
67904;SDS011;54709;43.614;1.576;2022-12-31T07:08:29;12.68;;;7.05;;
67904;SDS011;54709;43.614;1.576;2022-12-31T07:11:08;17.55;;;7.22;;
67904;SDS011;54709;43.614;1.576;2022-12-31T07:13:43;14.07;;;7.28;;
67904;SDS011;54709;43.614;1.576;2022-12-31T07:21:09;15.25;;;7.07;;
67904;SDS011;54709;43.614;1.576;2022-12-31T07:23:37;12.48;;;7.65;;
67904;SDS011;54709;43.614;1.576;2022-12-31T07:26:15;13.60;;;6.95;;
67904;SDS011;54709;43.614;1.576;2022-12-31T07:32:18;13.10;;;7.07;;
67904;SDS011;54709;43.614;1.576;2022-12-31T07:43:23;14.70;;;7.00;;
67904;SDS011;54709;43.614;1.576;2022-12-31T07:48:58;12.93;;;6.80;;
67904;SDS011;54709;43.614;1.576;2022-12-31T07:51:24;13.50;;;6.45;;
67904;SDS011;54709;43.614;1.576;2022-12-31T07:53:49;14.05;;;6.70;;
67904;SDS011;54709;43.614;1.576;2022-12-31T07:56:15;13.32;;;7.38;;
67904;SDS011;54709;43.614;1.576;2022-12-31T08:01:28;12.27;;;6.82;;
67904;SDS011;54709;43.614;1.576;2022-12-31T08:06:49;14.65;;;6.75;;
67904;SDS011;54709;43.614;1.576;2022-12-31T08:12:01;12.52;;;6.70;;
67904;SDS011;54709;43.614;1.576;2022-12-31T08:14:27;16.20;;;7.25;;
67904;SDS011;54709;43.614;1.576;2022-12-31T08:16:54;13.60;;;6.13;;
67904;SDS011;54709;43.614;1.576;2022-12-31T08:19:27;15.73;;;7.13;;
67904;SDS011;54709;43.614;1.576;2022-12-31T08:30:09;12.77;;;6.47;;
67904;SDS011;54709;43.614;1.576;2022-12-31T08:32:47;12.27;;;6.28;;
67904;SDS011;54709;43.614;1.576;2022-12-31T08:43:19;13.70;;;6.30;;
67904;SDS011;54709;43.614;1.576;2022-12-31T08:46:07;11.93;;;6.30;;
67904;SDS011;54709;43.614;1.576;2022-12-31T08:48:41;13.05;;;6.28;;
67904;SDS011;54709;43.614;1.576;2022-12-31T08:51:11;12.02;;;6.22;;
67904;SDS011;54709;43.614;1.576;2022-12-31T08:53:39;11.27;;;6.22;;
67904;SDS011;54709;43.614;1.576;2022-12-31T09:01:40;12.35;;;6.18;;
67904;SDS011;54709;43.614;1.576;2022-12-31T09:07:22;14.13;;;6.13;;
67904;SDS011;54709;43.614;1.576;2022-12-31T09:15:15;10.60;;;5.72;;
67904;SDS011;54709;43.614;1.576;2022-12-31T09:17:45;12.35;;;5.30;;
67904;SDS011;54709;43.614;1.576;2022-12-31T09:22:59;11.45;;;5.40;;
67904;SDS011;54709;43.614;1.576;2022-12-31T09:25:26;9.63;;;5.22;;
67904;SDS011;54709;43.614;1.576;2022-12-31T09:30:21;12.35;;;6.03;;
67904;SDS011;54709;43.614;1.576;2022-12-31T09:35:35;11.48;;;5.20;;
67904;SDS011;54709;43.614;1.576;2022-12-31T09:54:54;9.85;;;5.47;;
67904;SDS011;54709;43.614;1.576;2022-12-31T09:57:34;12.10;;;5.45;;
67904;SDS011;54709;43.614;1.576;2022-12-31T10:00:19;11.10;;;5.22;;
67904;SDS011;54709;43.614;1.576;2022-12-31T10:05:55;10.38;;;5.18;;
67904;SDS011;54709;43.614;1.576;2022-12-31T10:14:15;10.23;;;5.43;;
67904;SDS011;54709;43.614;1.576;2022-12-31T10:17:00;13.95;;;5.13;;
67904;SDS011;54709;43.614;1.576;2022-12-31T10:28:09;10.60;;;5.03;;
67904;SDS011;54709;43.614;1.576;2022-12-31T10:30:44;10.32;;;5.25;;
67904;SDS011;54709;43.614;1.576;2022-12-31T10:35:42;11.30;;;4.88;;
67904;SDS011;54709;43.614;1.576;2022-12-31T10:38:23;9.60;;;5.18;;
67904;SDS011;54709;43.614;1.576;2022-12-31T10:49:01;11.05;;;5.00;;
67904;SDS011;54709;43.614;1.576;2022-12-31T10:52:01;8.93;;;4.82;;
67904;SDS011;54709;43.614;1.576;2022-12-31T10:54:53;9.52;;;4.70;;
67904;SDS011;54709;43.614;1.576;2022-12-31T11:14:38;10.98;;;4.72;;
67904;SDS011;54709;43.614;1.576;2022-12-31T11:25:22;10.88;;;4.78;;
67904;SDS011;54709;43.614;1.576;2022-12-31T11:28:38;9.95;;;4.70;;
67904;SDS011;54709;43.614;1.576;2022-12-31T11:31:00;10.75;;;4.82;;
67904;SDS011;54709;43.614;1.576;2022-12-31T11:56:31;12.43;;;4.75;;
67904;SDS011;54709;43.614;1.576;2022-12-31T11:58:58;9.93;;;4.45;;
67904;SDS011;54709;43.614;1.576;2022-12-31T12:04:15;11.90;;;4.22;;
67904;SDS011;54709;43.614;1.576;2022-12-31T12:06:40;7.68;;;3.97;;
67904;SDS011;54709;43.614;1.576;2022-12-31T12:09:09;12.85;;;4.55;;
67904;SDS011;54709;43.614;1.576;2022-12-31T12:11:40;11.90;;;4.18;;
67904;SDS011;54709;43.614;1.576;2022-12-31T12:14:25;9.90;;;3.90;;
67904;SDS011;54709;43.614;1.576;2022-12-31T12:16:56;10.77;;;3.92;;
67904;SDS011;54709;43.614;1.576;2022-12-31T12:19:23;7.43;;;3.95;;
67904;SDS011;54709;43.614;1.576;2022-12-31T12:21:51;7.78;;;3.95;;
67904;SDS011;54709;43.614;1.576;2022-12-31T12:24:21;11.93;;;4.22;;
67904;SDS011;54709;43.614;1.576;2022-12-31T12:26:51;9.48;;;3.80;;
67904;SDS011;54709;43.614;1.576;2022-12-31T12:29:18;9.00;;;3.80;;
67904;SDS011;54709;43.614;1.576;2022-12-31T12:31:55;6.32;;;3.83;;
67904;SDS011;54709;43.614;1.576;2022-12-31T12:34:28;10.32;;;3.80;;
67904;SDS011;54709;43.614;1.576;2022-12-31T12:36:55;7.18;;;3.42;;
67904;SDS011;54709;43.614;1.576;2022-12-31T12:39:26;8.75;;;3.92;;
67904;SDS011;54709;43.614;1.576;2022-12-31T12:42:12;5.32;;;3.35;;
67904;SDS011;54709;43.614;1.576;2022-12-31T12:44:38;9.95;;;3.33;;
67904;SDS011;54709;43.614;1.576;2022-12-31T12:47:07;5.53;;;3.40;;
67904;SDS011;54709;43.614;1.576;2022-12-31T12:49:56;7.03;;;3.53;;
67904;SDS011;54709;43.614;1.576;2022-12-31T13:03:59;7.47;;;3.50;;
67904;SDS011;54709;43.614;1.576;2022-12-31T13:09:29;7.13;;;3.63;;
67904;SDS011;54709;43.614;1.576;2022-12-31T13:12:19;6.55;;;3.30;;
67904;SDS011;54709;43.614;1.576;2022-12-31T13:20:14;9.70;;;3.88;;
67904;SDS011;54709;43.614;1.576;2022-12-31T13:28:03;8.00;;;3.88;;
67904;SDS011;54709;43.614;1.576;2022-12-31T13:30:44;7.60;;;3.95;;
67904;SDS011;54709;43.614;1.576;2022-12-31T13:33:19;7.82;;;3.78;;
67904;SDS011;54709;43.614;1.576;2022-12-31T13:35:52;10.25;;;3.72;;
67904;SDS011;54709;43.614;1.576;2022-12-31T13:38:25;7.85;;;3.78;;
67904;SDS011;54709;43.614;1.576;2022-12-31T13:40:57;8.82;;;3.85;;
67904;SDS011;54709;43.614;1.576;2022-12-31T13:49:04;7.60;;;4.00;;
67904;SDS011;54709;43.614;1.576;2022-12-31T13:56:54;8.02;;;3.60;;
67904;SDS011;54709;43.614;1.576;2022-12-31T13:59:36;12.10;;;4.07;;
67904;SDS011;54709;43.614;1.576;2022-12-31T14:07:57;9.98;;;3.72;;
67904;SDS011;54709;43.614;1.576;2022-12-31T14:11:07;8.90;;;3.50;;
67904;SDS011;54709;43.614;1.576;2022-12-31T14:18:35;8.85;;;3.92;;
67904;SDS011;54709;43.614;1.576;2022-12-31T14:21:33;10.98;;;3.75;;
67904;SDS011;54709;43.614;1.576;2022-12-31T14:24:13;8.60;;;3.78;;
67904;SDS011;54709;43.614;1.576;2022-12-31T14:26:54;8.68;;;3.72;;
67904;SDS011;54709;43.614;1.576;2022-12-31T14:29:43;7.78;;;3.47;;
67904;SDS011;54709;43.614;1.576;2022-12-31T14:32:12;8.32;;;3.63;;
67904;SDS011;54709;43.614;1.576;2022-12-31T14:38:07;7.05;;;3.55;;
67904;SDS011;54709;43.614;1.576;2022-12-31T14:46:43;11.10;;;3.83;;
67904;SDS011;54709;43.614;1.576;2022-12-31T14:55:00;11.43;;;3.40;;
67904;SDS011;54709;43.614;1.576;2022-12-31T14:57:41;6.43;;;3.72;;
67904;SDS011;54709;43.614;1.576;2022-12-31T15:03:05;12.30;;;3.97;;
67904;SDS011;54709;43.614;1.576;2022-12-31T15:05:51;10.60;;;3.60;;
67904;SDS011;54709;43.614;1.576;2022-12-31T15:08:31;10.73;;;4.65;;
67904;SDS011;54709;43.614;1.576;2022-12-31T15:16:29;13.77;;;4.15;;
67904;SDS011;54709;43.614;1.576;2022-12-31T15:25:46;11.43;;;4.50;;
67904;SDS011;54709;43.614;1.576;2022-12-31T15:28:05;8.30;;;4.30;;
67904;SDS011;54709;43.614;1.576;2022-12-31T15:33:08;8.50;;;4.07;;
67904;SDS011;54709;43.614;1.576;2022-12-31T15:35:45;9.63;;;4.28;;
67904;SDS011;54709;43.614;1.576;2022-12-31T15:40:49;12.60;;;4.70;;
67904;SDS011;54709;43.614;1.576;2022-12-31T15:45:44;10.20;;;4.38;;
67904;SDS011;54709;43.614;1.576;2022-12-31T15:48:46;12.93;;;4.57;;
67904;SDS011;54709;43.614;1.576;2022-12-31T15:52:19;11.38;;;4.18;;
67904;SDS011;54709;43.614;1.576;2022-12-31T15:56:49;12.35;;;5.13;;
67904;SDS011;54709;43.614;1.576;2022-12-31T15:59:16;8.15;;;4.35;;
67904;SDS011;54709;43.614;1.576;2022-12-31T16:01:43;8.90;;;4.47;;
67904;SDS011;54709;43.614;1.576;2022-12-31T16:04:25;9.68;;;4.88;;
67904;SDS011;54709;43.614;1.576;2022-12-31T16:06:52;17.40;;;5.05;;
67904;SDS011;54709;43.614;1.576;2022-12-31T16:09:22;12.82;;;4.70;;
67904;SDS011;54709;43.614;1.576;2022-12-31T16:11:47;9.00;;;4.43;;
67904;SDS011;54709;43.614;1.576;2022-12-31T16:14:15;13.13;;;5.20;;
67904;SDS011;54709;43.614;1.576;2022-12-31T16:16:55;11.00;;;5.97;;
67904;SDS011;54709;43.614;1.576;2022-12-31T16:19:43;10.38;;;5.10;;
67904;SDS011;54709;43.614;1.576;2022-12-31T16:22:22;12.75;;;6.53;;
67904;SDS011;54709;43.614;1.576;2022-12-31T16:24:53;12.05;;;6.47;;
67904;SDS011;54709;43.614;1.576;2022-12-31T16:27:20;13.50;;;5.45;;
67904;SDS011;54709;43.614;1.576;2022-12-31T16:29:47;12.85;;;5.53;;
67904;SDS011;54709;43.614;1.576;2022-12-31T16:32:16;16.13;;;5.90;;
67904;SDS011;54709;43.614;1.576;2022-12-31T16:34:42;10.82;;;6.57;;
67904;SDS011;54709;43.614;1.576;2022-12-31T16:37:17;9.55;;;5.95;;
67904;SDS011;54709;43.614;1.576;2022-12-31T16:42:25;13.82;;;5.20;;
67904;SDS011;54709;43.614;1.576;2022-12-31T16:44:52;13.05;;;5.60;;
67904;SDS011;54709;43.614;1.576;2022-12-31T16:47:26;10.95;;;5.50;;
67904;SDS011;54709;43.614;1.576;2022-12-31T16:50:00;11.70;;;5.35;;
67904;SDS011;54709;43.614;1.576;2022-12-31T16:52:36;9.55;;;5.10;;
67904;SDS011;54709;43.614;1.576;2022-12-31T16:55:05;8.65;;;4.93;;
67904;SDS011;54709;43.614;1.576;2022-12-31T16:57:38;11.55;;;5.40;;
67904;SDS011;54709;43.614;1.576;2022-12-31T17:00:04;10.20;;;5.55;;
67904;SDS011;54709;43.614;1.576;2022-12-31T17:02:36;11.70;;;5.32;;
67904;SDS011;54709;43.614;1.576;2022-12-31T17:05:03;11.88;;;5.40;;
67904;SDS011;54709;43.614;1.576;2022-12-31T17:12:33;9.02;;;5.32;;
67904;SDS011;54709;43.614;1.576;2022-12-31T17:15:00;9.45;;;5.47;;
67904;SDS011;54709;43.614;1.576;2022-12-31T17:17:27;9.23;;;5.70;;
67904;SDS011;54709;43.614;1.576;2022-12-31T17:19:58;11.65;;;5.53;;
67904;SDS011;54709;43.614;1.576;2022-12-31T17:22:25;9.80;;;5.75;;
67904;SDS011;54709;43.614;1.576;2022-12-31T17:25:02;10.93;;;5.93;;
67904;SDS011;54709;43.614;1.576;2022-12-31T17:30:17;17.13;;;9.43;;
67904;SDS011;54709;43.614;1.576;2022-12-31T17:32:44;12.35;;;7.07;;
67904;SDS011;54709;43.614;1.576;2022-12-31T17:41:02;8.48;;;5.97;;
67904;SDS011;54709;43.614;1.576;2022-12-31T17:43:49;7.97;;;5.78;;
67904;SDS011;54709;43.614;1.576;2022-12-31T17:46:17;9.98;;;5.60;;
67904;SDS011;54709;43.614;1.576;2022-12-31T17:48:43;9.05;;;5.78;;
67904;SDS011;54709;43.614;1.576;2022-12-31T17:51:10;10.27;;;5.70;;
67904;SDS011;54709;43.614;1.576;2022-12-31T17:53:35;9.18;;;5.78;;
67904;SDS011;54709;43.614;1.576;2022-12-31T17:56:05;12.38;;;6.28;;
67904;SDS011;54709;43.614;1.576;2022-12-31T17:58:33;11.32;;;6.55;;
67904;SDS011;54709;43.614;1.576;2022-12-31T18:01:01;13.85;;;7.10;;
67904;SDS011;54709;43.614;1.576;2022-12-31T18:03:29;11.80;;;6.97;;
67904;SDS011;54709;43.614;1.576;2022-12-31T18:05:54;11.98;;;6.10;;
67904;SDS011;54709;43.614;1.576;2022-12-31T18:08:20;9.00;;;6.00;;
67904;SDS011;54709;43.614;1.576;2022-12-31T18:10:45;10.68;;;5.97;;
67904;SDS011;54709;43.614;1.576;2022-12-31T18:13:15;10.23;;;6.22;;
67904;SDS011;54709;43.614;1.576;2022-12-31T18:15:42;11.10;;;6.72;;
67904;SDS011;54709;43.614;1.576;2022-12-31T18:20:47;12.43;;;6.93;;
67904;SDS011;54709;43.614;1.576;2022-12-31T18:23:24;10.05;;;6.13;;
67904;SDS011;54709;43.614;1.576;2022-12-31T18:25:50;11.30;;;6.40;;
67904;SDS011;54709;43.614;1.576;2022-12-31T18:28:16;11.30;;;6.32;;
67904;SDS011;54709;43.614;1.576;2022-12-31T18:30:41;12.50;;;6.45;;
67904;SDS011;54709;43.614;1.576;2022-12-31T18:33:09;11.15;;;6.63;;
67904;SDS011;54709;43.614;1.576;2022-12-31T18:35:35;14.07;;;7.38;;
67904;SDS011;54709;43.614;1.576;2022-12-31T18:38:01;16.77;;;7.82;;
67904;SDS011;54709;43.614;1.576;2022-12-31T18:40:27;13.68;;;7.55;;
67904;SDS011;54709;43.614;1.576;2022-12-31T18:42:52;16.25;;;7.80;;
67904;SDS011;54709;43.614;1.576;2022-12-31T18:45:18;20.25;;;8.48;;
67904;SDS011;54709;43.614;1.576;2022-12-31T18:47:44;17.33;;;7.65;;
67904;SDS011;54709;43.614;1.576;2022-12-31T18:50:13;14.13;;;7.60;;
67904;SDS011;54709;43.614;1.576;2022-12-31T18:52:39;19.98;;;8.13;;
67904;SDS011;54709;43.614;1.576;2022-12-31T18:55:15;19.08;;;7.88;;
67904;SDS011;54709;43.614;1.576;2022-12-31T18:57:45;15.25;;;7.22;;
67904;SDS011;54709;43.614;1.576;2022-12-31T19:00:10;12.55;;;7.00;;
67904;SDS011;54709;43.614;1.576;2022-12-31T19:02:36;22.40;;;8.48;;
67904;SDS011;54709;43.614;1.576;2022-12-31T19:05:08;14.50;;;8.25;;
67904;SDS011;54709;43.614;1.576;2022-12-31T19:07:51;16.98;;;9.23;;
67904;SDS011;54709;43.614;1.576;2022-12-31T19:10:18;21.05;;;11.05;;
67904;SDS011;54709;43.614;1.576;2022-12-31T19:12:44;20.75;;;10.95;;
67904;SDS011;54709;43.614;1.576;2022-12-31T19:15:32;19.17;;;10.02;;
67904;SDS011;54709;43.614;1.576;2022-12-31T19:18:03;19.45;;;9.80;;
67904;SDS011;54709;43.614;1.576;2022-12-31T19:20:29;19.05;;;9.43;;
67904;SDS011;54709;43.614;1.576;2022-12-31T19:22:54;15.63;;;8.52;;
67904;SDS011;54709;43.614;1.576;2022-12-31T19:25:25;18.13;;;9.77;;
67904;SDS011;54709;43.614;1.576;2022-12-31T19:27:52;22.77;;;9.27;;
67904;SDS011;54709;43.614;1.576;2022-12-31T19:30:22;18.75;;;9.35;;
67904;SDS011;54709;43.614;1.576;2022-12-31T19:32:48;17.23;;;10.02;;
67904;SDS011;54709;43.614;1.576;2022-12-31T19:35:14;15.50;;;8.77;;
67904;SDS011;54709;43.614;1.576;2022-12-31T19:37:40;16.70;;;8.40;;
67904;SDS011;54709;43.614;1.576;2022-12-31T19:40:09;20.40;;;8.95;;
67904;SDS011;54709;43.614;1.576;2022-12-31T19:42:37;16.80;;;9.77;;
67904;SDS011;54709;43.614;1.576;2022-12-31T19:45:03;18.38;;;8.68;;